sensor_id;sensor_type;location;lat;lon;timestamp;P1;durP1;ratioP1;P2;durP2;ratioP2
53391;SDS011;41667;51.922;8.850;2024-03-22T00:02:25;28.38;;;14.85;;
53391;SDS011;41667;51.922;8.850;2024-03-22T00:04:50;31.98;;;14.75;;
53391;SDS011;41667;51.922;8.850;2024-03-22T00:07:15;28.85;;;14.05;;
53391;SDS011;41667;51.922;8.850;2024-03-22T00:09:41;26.33;;;13.45;;
53391;SDS011;41667;51.922;8.850;2024-03-22T00:12:06;29.80;;;16.83;;
53391;SDS011;41667;51.922;8.850;2024-03-22T00:14:31;31.45;;;16.80;;
53391;SDS011;41667;51.922;8.850;2024-03-22T00:16:57;31.70;;;15.57;;
53391;SDS011;41667;51.922;8.850;2024-03-22T00:19:22;32.63;;;15.60;;
53391;SDS011;41667;51.922;8.850;2024-03-22T00:21:47;32.33;;;17.48;;
53391;SDS011;41667;51.922;8.850;2024-03-22T00:24:13;29.90;;;15.18;;
53391;SDS011;41667;51.922;8.850;2024-03-22T00:26:38;30.38;;;16.10;;
53391;SDS011;41667;51.922;8.850;2024-03-22T00:29:04;32.75;;;15.52;;
53391;SDS011;41667;51.922;8.850;2024-03-22T00:31:29;30.45;;;14.98;;
53391;SDS011;41667;51.922;8.850;2024-03-22T00:33:54;27.85;;;14.57;;
53391;SDS011;41667;51.922;8.850;2024-03-22T00:36:20;32.42;;;14.45;;
53391;SDS011;41667;51.922;8.850;2024-03-22T00:38:46;28.27;;;15.80;;
53391;SDS011;41667;51.922;8.850;2024-03-22T00:41:11;25.17;;;14.55;;
53391;SDS011;41667;51.922;8.850;2024-03-22T00:43:37;31.67;;;16.08;;
53391;SDS011;41667;51.922;8.850;2024-03-22T00:46:02;28.65;;;13.25;;
53391;SDS011;41667;51.922;8.850;2024-03-22T00:48:27;25.55;;;13.68;;
53391;SDS011;41667;51.922;8.850;2024-03-22T00:50:53;29.52;;;14.80;;
53391;SDS011;41667;51.922;8.850;2024-03-22T00:53:18;28.08;;;13.45;;
53391;SDS011;41667;51.922;8.850;2024-03-22T00:55:43;26.33;;;13.65;;
53391;SDS011;41667;51.922;8.850;2024-03-22T00:58:09;28.77;;;14.40;;
53391;SDS011;41667;51.922;8.850;2024-03-22T01:00:34;34.40;;;15.32;;
53391;SDS011;41667;51.922;8.850;2024-03-22T01:03:01;33.88;;;15.73;;
53391;SDS011;41667;51.922;8.850;2024-03-22T01:05:27;34.72;;;15.65;;
53391;SDS011;41667;51.922;8.850;2024-03-22T01:07:52;25.73;;;14.07;;
53391;SDS011;41667;51.922;8.850;2024-03-22T01:10:17;30.00;;;16.73;;
53391;SDS011;41667;51.922;8.850;2024-03-22T01:12:43;32.63;;;15.75;;
53391;SDS011;41667;51.922;8.850;2024-03-22T01:15:09;30.40;;;15.50;;
53391;SDS011;41667;51.922;8.850;2024-03-22T01:17:34;35.53;;;15.93;;
53391;SDS011;41667;51.922;8.850;2024-03-22T01:19:59;33.03;;;15.52;;
53391;SDS011;41667;51.922;8.850;2024-03-22T01:22:25;36.40;;;17.08;;
53391;SDS011;41667;51.922;8.850;2024-03-22T01:24:50;35.20;;;16.23;;
53391;SDS011;41667;51.922;8.850;2024-03-22T01:27:15;37.90;;;15.57;;
53391;SDS011;41667;51.922;8.850;2024-03-22T01:29:41;33.80;;;15.07;;
53391;SDS011;41667;51.922;8.850;2024-03-22T01:32:06;29.60;;;14.73;;
53391;SDS011;41667;51.922;8.850;2024-03-22T01:34:31;26.40;;;14.75;;
53391;SDS011;41667;51.922;8.850;2024-03-22T01:36:57;35.72;;;16.40;;
53391;SDS011;41667;51.922;8.850;2024-03-22T01:39:23;33.20;;;16.33;;
53391;SDS011;41667;51.922;8.850;2024-03-22T01:41:48;27.38;;;13.85;;
53391;SDS011;41667;51.922;8.850;2024-03-22T01:44:14;38.40;;;17.63;;
53391;SDS011;41667;51.922;8.850;2024-03-22T01:46:42;30.80;;;15.50;;
53391;SDS011;41667;51.922;8.850;2024-03-22T01:49:09;30.27;;;10.85;;
53391;SDS011;41667;51.922;8.850;2024-03-22T01:51:35;25.02;;;12.18;;
53391;SDS011;41667;51.922;8.850;2024-03-22T01:54:03;25.55;;;12.38;;
53391;SDS011;41667;51.922;8.850;2024-03-22T01:56:29;37.38;;;15.95;;
53391;SDS011;41667;51.922;8.850;2024-03-22T01:58:55;32.00;;;15.88;;
53391;SDS011;41667;51.922;8.850;2024-03-22T02:01:21;37.53;;;17.42;;
53391;SDS011;41667;51.922;8.850;2024-03-22T02:03:46;34.33;;;15.02;;
53391;SDS011;41667;51.922;8.850;2024-03-22T02:06:12;34.63;;;14.70;;
53391;SDS011;41667;51.922;8.850;2024-03-22T02:08:37;36.47;;;14.27;;
53391;SDS011;41667;51.922;8.850;2024-03-22T02:11:05;28.05;;;13.95;;
53391;SDS011;41667;51.922;8.850;2024-03-22T02:13:31;28.42;;;14.13;;
53391;SDS011;41667;51.922;8.850;2024-03-22T02:15:56;27.38;;;14.50;;
53391;SDS011;41667;51.922;8.850;2024-03-22T02:18:22;32.83;;;13.32;;
53391;SDS011;41667;51.922;8.850;2024-03-22T02:20:48;25.95;;;11.48;;
53391;SDS011;41667;51.922;8.850;2024-03-22T02:23:13;32.38;;;13.27;;
53391;SDS011;41667;51.922;8.850;2024-03-22T02:25:38;27.58;;;13.52;;
53391;SDS011;41667;51.922;8.850;2024-03-22T02:28:04;28.40;;;14.77;;
53391;SDS011;41667;51.922;8.850;2024-03-22T02:30:29;33.45;;;14.38;;
53391;SDS011;41667;51.922;8.850;2024-03-22T02:32:54;34.40;;;15.98;;
53391;SDS011;41667;51.922;8.850;2024-03-22T02:35:20;30.05;;;15.55;;
53391;SDS011;41667;51.922;8.850;2024-03-22T02:37:45;40.78;;;15.07;;
53391;SDS011;41667;51.922;8.850;2024-03-22T02:40:10;28.55;;;13.02;;
53391;SDS011;41667;51.922;8.850;2024-03-22T02:42:36;28.35;;;12.93;;
53391;SDS011;41667;51.922;8.850;2024-03-22T02:45:01;27.80;;;12.57;;
53391;SDS011;41667;51.922;8.850;2024-03-22T02:47:27;31.13;;;13.90;;
53391;SDS011;41667;51.922;8.850;2024-03-22T02:49:52;31.08;;;12.75;;
53391;SDS011;41667;51.922;8.850;2024-03-22T02:52:17;25.55;;;10.43;;
53391;SDS011;41667;51.922;8.850;2024-03-22T02:54:43;33.47;;;13.80;;
53391;SDS011;41667;51.922;8.850;2024-03-22T02:57:08;28.02;;;12.32;;
53391;SDS011;41667;51.922;8.850;2024-03-22T02:59:33;31.55;;;14.13;;
53391;SDS011;41667;51.922;8.850;2024-03-22T03:01:59;29.02;;;14.65;;
53391;SDS011;41667;51.922;8.850;2024-03-22T03:04:24;29.80;;;14.02;;
53391;SDS011;41667;51.922;8.850;2024-03-22T03:06:49;26.20;;;12.95;;
53391;SDS011;41667;51.922;8.850;2024-03-22T03:09:14;28.70;;;12.00;;
53391;SDS011;41667;51.922;8.850;2024-03-22T03:11:40;32.55;;;12.95;;
53391;SDS011;41667;51.922;8.850;2024-03-22T03:14:05;30.00;;;13.60;;
53391;SDS011;41667;51.922;8.850;2024-03-22T03:16:31;22.05;;;10.00;;
53391;SDS011;41667;51.922;8.850;2024-03-22T03:18:56;22.38;;;12.35;;
53391;SDS011;41667;51.922;8.850;2024-03-22T03:21:22;26.88;;;14.32;;
53391;SDS011;41667;51.922;8.850;2024-03-22T03:23:47;30.77;;;12.73;;
53391;SDS011;41667;51.922;8.850;2024-03-22T03:26:12;34.90;;;14.13;;
53391;SDS011;41667;51.922;8.850;2024-03-22T03:28:37;24.80;;;13.90;;
53391;SDS011;41667;51.922;8.850;2024-03-22T03:31:03;27.88;;;12.70;;
53391;SDS011;41667;51.922;8.850;2024-03-22T03:33:29;29.38;;;13.98;;
53391;SDS011;41667;51.922;8.850;2024-03-22T03:35:54;27.05;;;12.80;;
53391;SDS011;41667;51.922;8.850;2024-03-22T03:38:20;32.20;;;13.85;;
53391;SDS011;41667;51.922;8.850;2024-03-22T03:40:46;25.88;;;13.77;;
53391;SDS011;41667;51.922;8.850;2024-03-22T03:43:11;26.52;;;12.70;;
53391;SDS011;41667;51.922;8.850;2024-03-22T03:45:37;27.85;;;13.88;;
53391;SDS011;41667;51.922;8.850;2024-03-22T03:48:02;22.55;;;10.95;;
53391;SDS011;41667;51.922;8.850;2024-03-22T03:50:27;29.75;;;12.60;;
53391;SDS011;41667;51.922;8.850;2024-03-22T03:52:53;29.13;;;14.35;;
53391;SDS011;41667;51.922;8.850;2024-03-22T03:55:18;27.25;;;12.88;;
53391;SDS011;41667;51.922;8.850;2024-03-22T03:57:43;22.80;;;11.68;;
53391;SDS011;41667;51.922;8.850;2024-03-22T04:00:09;25.23;;;9.90;;
53391;SDS011;41667;51.922;8.850;2024-03-22T04:02:34;28.50;;;12.60;;
53391;SDS011;41667;51.922;8.850;2024-03-22T04:04:59;38.08;;;13.05;;
53391;SDS011;41667;51.922;8.850;2024-03-22T04:07:25;26.20;;;12.20;;
53391;SDS011;41667;51.922;8.850;2024-03-22T04:09:50;28.65;;;12.13;;
53391;SDS011;41667;51.922;8.850;2024-03-22T04:12:15;24.65;;;12.23;;
53391;SDS011;41667;51.922;8.850;2024-03-22T04:14:41;22.75;;;10.63;;
53391;SDS011;41667;51.922;8.850;2024-03-22T04:17:06;22.55;;;11.32;;
53391;SDS011;41667;51.922;8.850;2024-03-22T04:19:32;31.98;;;12.88;;
53391;SDS011;41667;51.922;8.850;2024-03-22T04:21:57;23.08;;;9.55;;
53391;SDS011;41667;51.922;8.850;2024-03-22T04:24:22;23.73;;;10.90;;
53391;SDS011;41667;51.922;8.850;2024-03-22T04:26:47;26.45;;;11.80;;
53391;SDS011;41667;51.922;8.850;2024-03-22T04:29:13;23.52;;;11.57;;
53391;SDS011;41667;51.922;8.850;2024-03-22T04:31:38;22.95;;;10.40;;
53391;SDS011;41667;51.922;8.850;2024-03-22T04:34:03;27.77;;;12.00;;
53391;SDS011;41667;51.922;8.850;2024-03-22T04:36:32;23.73;;;10.13;;
53391;SDS011;41667;51.922;8.850;2024-03-22T04:38:57;23.05;;;11.73;;
53391;SDS011;41667;51.922;8.850;2024-03-22T04:41:23;25.83;;;10.50;;
53391;SDS011;41667;51.922;8.850;2024-03-22T04:43:48;25.77;;;11.90;;
53391;SDS011;41667;51.922;8.850;2024-03-22T04:46:13;20.10;;;10.23;;
53391;SDS011;41667;51.922;8.850;2024-03-22T04:48:39;21.15;;;11.68;;
53391;SDS011;41667;51.922;8.850;2024-03-22T04:51:04;23.95;;;11.48;;
53391;SDS011;41667;51.922;8.850;2024-03-22T04:53:29;21.50;;;10.77;;
53391;SDS011;41667;51.922;8.850;2024-03-22T04:55:55;24.17;;;11.48;;
53391;SDS011;41667;51.922;8.850;2024-03-22T04:58:20;23.42;;;11.73;;
53391;SDS011;41667;51.922;8.850;2024-03-22T05:00:46;25.30;;;11.10;;
53391;SDS011;41667;51.922;8.850;2024-03-22T05:03:12;22.67;;;9.80;;
53391;SDS011;41667;51.922;8.850;2024-03-22T05:05:38;21.67;;;10.68;;
53391;SDS011;41667;51.922;8.850;2024-03-22T05:08:03;22.77;;;11.40;;
53391;SDS011;41667;51.922;8.850;2024-03-22T05:10:29;22.00;;;10.32;;
53391;SDS011;41667;51.922;8.850;2024-03-22T05:12:55;23.23;;;11.13;;
53391;SDS011;41667;51.922;8.850;2024-03-22T05:15:20;17.75;;;9.20;;
53391;SDS011;41667;51.922;8.850;2024-03-22T05:17:46;16.83;;;8.55;;
53391;SDS011;41667;51.922;8.850;2024-03-22T05:20:11;15.32;;;8.02;;
53391;SDS011;41667;51.922;8.850;2024-03-22T05:22:39;15.50;;;7.20;;
53391;SDS011;41667;51.922;8.850;2024-03-22T05:25:05;18.13;;;9.00;;
53391;SDS011;41667;51.922;8.850;2024-03-22T05:27:31;16.65;;;9.35;;
53391;SDS011;41667;51.922;8.850;2024-03-22T05:29:57;18.50;;;7.90;;
53391;SDS011;41667;51.922;8.850;2024-03-22T05:32:22;20.40;;;10.68;;
53391;SDS011;41667;51.922;8.850;2024-03-22T05:34:47;26.15;;;10.40;;
53391;SDS011;41667;51.922;8.850;2024-03-22T05:37:13;22.90;;;10.32;;
53391;SDS011;41667;51.922;8.850;2024-03-22T05:39:38;20.98;;;10.80;;
53391;SDS011;41667;51.922;8.850;2024-03-22T05:42:05;20.48;;;9.27;;
53391;SDS011;41667;51.922;8.850;2024-03-22T05:44:31;16.15;;;8.20;;
53391;SDS011;41667;51.922;8.850;2024-03-22T05:46:56;10.23;;;8.05;;
53391;SDS011;41667;51.922;8.850;2024-03-22T05:49:21;21.08;;;8.88;;
53391;SDS011;41667;51.922;8.850;2024-03-22T05:51:47;17.17;;;9.15;;
53391;SDS011;41667;51.922;8.850;2024-03-22T05:54:12;13.88;;;7.63;;
53391;SDS011;41667;51.922;8.850;2024-03-22T05:56:37;18.23;;;9.68;;
53391;SDS011;41667;51.922;8.850;2024-03-22T05:59:03;16.08;;;7.88;;
53391;SDS011;41667;51.922;8.850;2024-03-22T06:01:28;11.82;;;7.57;;
53391;SDS011;41667;51.922;8.850;2024-03-22T06:03:53;14.95;;;7.65;;
53391;SDS011;41667;51.922;8.850;2024-03-22T06:06:19;20.30;;;8.95;;
53391;SDS011;41667;51.922;8.850;2024-03-22T06:08:47;19.35;;;8.45;;
53391;SDS011;41667;51.922;8.850;2024-03-22T06:11:17;15.27;;;7.22;;
53391;SDS011;41667;51.922;8.850;2024-03-22T06:13:42;17.85;;;9.48;;
53391;SDS011;41667;51.922;8.850;2024-03-22T06:16:07;16.90;;;7.32;;
53391;SDS011;41667;51.922;8.850;2024-03-22T06:18:33;17.80;;;9.43;;
53391;SDS011;41667;51.922;8.850;2024-03-22T06:20:58;17.35;;;9.88;;
53391;SDS011;41667;51.922;8.850;2024-03-22T06:23:23;18.55;;;9.57;;
53391;SDS011;41667;51.922;8.850;2024-03-22T06:25:52;12.90;;;7.82;;
53391;SDS011;41667;51.922;8.850;2024-03-22T06:28:18;16.67;;;8.93;;
53391;SDS011;41667;51.922;8.850;2024-03-22T06:30:43;14.32;;;6.70;;
53391;SDS011;41667;51.922;8.850;2024-03-22T06:33:08;18.27;;;8.82;;
53391;SDS011;41667;51.922;8.850;2024-03-22T06:35:33;18.13;;;10.43;;
53391;SDS011;41667;51.922;8.850;2024-03-22T06:37:59;14.40;;;7.75;;
53391;SDS011;41667;51.922;8.850;2024-03-22T06:40:27;14.98;;;7.80;;
53391;SDS011;41667;51.922;8.850;2024-03-22T06:42:52;14.93;;;9.05;;
53391;SDS011;41667;51.922;8.850;2024-03-22T06:45:18;19.60;;;9.13;;
53391;SDS011;41667;51.922;8.850;2024-03-22T06:47:43;22.70;;;8.88;;
53391;SDS011;41667;51.922;8.850;2024-03-22T06:50:09;18.33;;;9.18;;
53391;SDS011;41667;51.922;8.850;2024-03-22T06:52:34;22.05;;;9.95;;
53391;SDS011;41667;51.922;8.850;2024-03-22T06:54:59;18.10;;;9.10;;
53391;SDS011;41667;51.922;8.850;2024-03-22T06:57:25;14.98;;;8.65;;
53391;SDS011;41667;51.922;8.850;2024-03-22T06:59:50;18.25;;;8.93;;
53391;SDS011;41667;51.922;8.850;2024-03-22T07:02:15;20.58;;;8.60;;
53391;SDS011;41667;51.922;8.850;2024-03-22T07:04:40;21.25;;;9.35;;
53391;SDS011;41667;51.922;8.850;2024-03-22T07:07:06;17.52;;;9.93;;
53391;SDS011;41667;51.922;8.850;2024-03-22T07:09:34;17.67;;;8.52;;
53391;SDS011;41667;51.922;8.850;2024-03-22T07:12:00;14.55;;;8.77;;
53391;SDS011;41667;51.922;8.850;2024-03-22T07:14:26;17.58;;;8.35;;
53391;SDS011;41667;51.922;8.850;2024-03-22T07:16:51;15.05;;;8.35;;
53391;SDS011;41667;51.922;8.850;2024-03-22T07:19:18;18.00;;;8.57;;
53391;SDS011;41667;51.922;8.850;2024-03-22T07:21:44;19.75;;;9.73;;
53391;SDS011;41667;51.922;8.850;2024-03-22T07:24:09;16.40;;;8.40;;
53391;SDS011;41667;51.922;8.850;2024-03-22T07:26:35;17.63;;;8.57;;
53391;SDS011;41667;51.922;8.850;2024-03-22T07:29:00;13.30;;;7.90;;
53391;SDS011;41667;51.922;8.850;2024-03-22T07:31:26;19.02;;;8.75;;
53391;SDS011;41667;51.922;8.850;2024-03-22T07:33:52;15.85;;;8.80;;
53391;SDS011;41667;51.922;8.850;2024-03-22T07:36:18;14.25;;;7.13;;
53391;SDS011;41667;51.922;8.850;2024-03-22T07:38:44;16.80;;;7.85;;
53391;SDS011;41667;51.922;8.850;2024-03-22T07:41:09;13.52;;;8.07;;
53391;SDS011;41667;51.922;8.850;2024-03-22T07:43:34;14.10;;;8.75;;
53391;SDS011;41667;51.922;8.850;2024-03-22T07:46:00;17.65;;;9.30;;
53391;SDS011;41667;51.922;8.850;2024-03-22T07:48:25;17.02;;;8.68;;
53391;SDS011;41667;51.922;8.850;2024-03-22T07:50:59;17.13;;;9.43;;
53391;SDS011;41667;51.922;8.850;2024-03-22T07:53:25;17.60;;;10.48;;
53391;SDS011;41667;51.922;8.850;2024-03-22T07:55:50;17.08;;;8.75;;
53391;SDS011;41667;51.922;8.850;2024-03-22T07:58:16;13.73;;;8.40;;
53391;SDS011;41667;51.922;8.850;2024-03-22T08:00:41;17.67;;;8.20;;
53391;SDS011;41667;51.922;8.850;2024-03-22T08:03:06;19.40;;;10.43;;
53391;SDS011;41667;51.922;8.850;2024-03-22T08:05:33;16.33;;;8.65;;
53391;SDS011;41667;51.922;8.850;2024-03-22T08:07:58;21.08;;;9.35;;
53391;SDS011;41667;51.922;8.850;2024-03-22T08:10:23;17.95;;;8.52;;
53391;SDS011;41667;51.922;8.850;2024-03-22T08:12:49;16.15;;;8.85;;
53391;SDS011;41667;51.922;8.850;2024-03-22T08:15:14;17.77;;;8.55;;
53391;SDS011;41667;51.922;8.850;2024-03-22T08:17:39;14.70;;;8.55;;
53391;SDS011;41667;51.922;8.850;2024-03-22T08:20:05;14.07;;;8.88;;
53391;SDS011;41667;51.922;8.850;2024-03-22T08:22:31;19.77;;;7.60;;
53391;SDS011;41667;51.922;8.850;2024-03-22T08:24:56;13.38;;;7.63;;
53391;SDS011;41667;51.922;8.850;2024-03-22T08:27:23;17.55;;;9.68;;
53391;SDS011;41667;51.922;8.850;2024-03-22T08:29:49;9.55;;;6.03;;
53391;SDS011;41667;51.922;8.850;2024-03-22T08:32:15;18.48;;;9.32;;
53391;SDS011;41667;51.922;8.850;2024-03-22T08:34:40;11.48;;;7.55;;
53391;SDS011;41667;51.922;8.850;2024-03-22T08:37:05;15.60;;;7.90;;
53391;SDS011;41667;51.922;8.850;2024-03-22T08:39:30;9.73;;;6.05;;
53391;SDS011;41667;51.922;8.850;2024-03-22T08:41:56;15.90;;;7.97;;
53391;SDS011;41667;51.922;8.850;2024-03-22T08:44:21;19.45;;;8.07;;
53391;SDS011;41667;51.922;8.850;2024-03-22T08:46:47;13.27;;;8.13;;
53391;SDS011;41667;51.922;8.850;2024-03-22T08:49:12;12.73;;;7.13;;
53391;SDS011;41667;51.922;8.850;2024-03-22T08:51:38;11.40;;;7.78;;
53391;SDS011;41667;51.922;8.850;2024-03-22T08:54:03;12.00;;;6.88;;
53391;SDS011;41667;51.922;8.850;2024-03-22T08:56:29;9.15;;;6.93;;
53391;SDS011;41667;51.922;8.850;2024-03-22T08:58:54;11.15;;;7.20;;
53391;SDS011;41667;51.922;8.850;2024-03-22T09:01:20;9.77;;;6.63;;
53391;SDS011;41667;51.922;8.850;2024-03-22T09:03:45;16.58;;;6.50;;
53391;SDS011;41667;51.922;8.850;2024-03-22T09:06:11;7.78;;;5.80;;
53391;SDS011;41667;51.922;8.850;2024-03-22T09:08:37;10.25;;;4.75;;
53391;SDS011;41667;51.922;8.850;2024-03-22T09:11:02;9.77;;;6.60;;
53391;SDS011;41667;51.922;8.850;2024-03-22T09:13:28;8.60;;;6.25;;
53391;SDS011;41667;51.922;8.850;2024-03-22T09:15:59;12.52;;;6.53;;
53391;SDS011;41667;51.922;8.850;2024-03-22T09:18:25;13.35;;;6.78;;
53391;SDS011;41667;51.922;8.850;2024-03-22T09:20:50;13.15;;;6.50;;
53391;SDS011;41667;51.922;8.850;2024-03-22T09:23:17;12.52;;;7.55;;
53391;SDS011;41667;51.922;8.850;2024-03-22T09:25:43;8.50;;;5.90;;
53391;SDS011;41667;51.922;8.850;2024-03-22T09:28:08;12.57;;;6.80;;
53391;SDS011;41667;51.922;8.850;2024-03-22T09:30:37;12.55;;;6.28;;
53391;SDS011;41667;51.922;8.850;2024-03-22T09:33:03;9.13;;;5.95;;
53391;SDS011;41667;51.922;8.850;2024-03-22T09:35:28;11.35;;;6.47;;
53391;SDS011;41667;51.922;8.850;2024-03-22T09:37:53;15.50;;;7.35;;
53391;SDS011;41667;51.922;8.850;2024-03-22T09:40:19;9.13;;;6.50;;
53391;SDS011;41667;51.922;8.850;2024-03-22T09:42:44;10.93;;;5.82;;
53391;SDS011;41667;51.922;8.850;2024-03-22T09:45:11;11.40;;;6.30;;
53391;SDS011;41667;51.922;8.850;2024-03-22T09:47:37;11.10;;;5.85;;
53391;SDS011;41667;51.922;8.850;2024-03-22T09:50:04;16.85;;;6.43;;
53391;SDS011;41667;51.922;8.850;2024-03-22T09:52:31;11.65;;;6.45;;
53391;SDS011;41667;51.922;8.850;2024-03-22T09:54:58;10.93;;;6.03;;
53391;SDS011;41667;51.922;8.850;2024-03-22T09:57:23;10.82;;;6.30;;
53391;SDS011;41667;51.922;8.850;2024-03-22T09:59:49;9.25;;;6.22;;
53391;SDS011;41667;51.922;8.850;2024-03-22T10:02:14;11.40;;;5.47;;
53391;SDS011;41667;51.922;8.850;2024-03-22T10:04:40;10.13;;;5.82;;
53391;SDS011;41667;51.922;8.850;2024-03-22T10:07:05;11.05;;;6.85;;
53391;SDS011;41667;51.922;8.850;2024-03-22T10:09:31;12.15;;;5.85;;
53391;SDS011;41667;51.922;8.850;2024-03-22T10:11:57;8.60;;;5.55;;
53391;SDS011;41667;51.922;8.850;2024-03-22T10:14:22;10.93;;;5.82;;
53391;SDS011;41667;51.922;8.850;2024-03-22T10:16:50;13.50;;;6.88;;
53391;SDS011;41667;51.922;8.850;2024-03-22T10:19:18;11.23;;;5.95;;
53391;SDS011;41667;51.922;8.850;2024-03-22T10:21:43;10.45;;;6.45;;
53391;SDS011;41667;51.922;8.850;2024-03-22T10:24:09;9.20;;;5.78;;
53391;SDS011;41667;51.922;8.850;2024-03-22T10:26:34;7.28;;;4.53;;
53391;SDS011;41667;51.922;8.850;2024-03-22T10:28:59;10.43;;;6.13;;
53391;SDS011;41667;51.922;8.850;2024-03-22T10:31:24;11.30;;;6.53;;
53391;SDS011;41667;51.922;8.850;2024-03-22T10:33:50;8.07;;;5.22;;
53391;SDS011;41667;51.922;8.850;2024-03-22T10:36:15;6.28;;;4.30;;
53391;SDS011;41667;51.922;8.850;2024-03-22T10:38:41;10.52;;;6.07;;
53391;SDS011;41667;51.922;8.850;2024-03-22T10:41:07;11.30;;;5.47;;
53391;SDS011;41667;51.922;8.850;2024-03-22T10:43:32;13.25;;;5.35;;
53391;SDS011;41667;51.922;8.850;2024-03-22T10:46:00;9.30;;;5.57;;
53391;SDS011;41667;51.922;8.850;2024-03-22T10:48:27;13.48;;;4.32;;
53391;SDS011;41667;51.922;8.850;2024-03-22T10:50:55;8.50;;;5.55;;
53391;SDS011;41667;51.922;8.850;2024-03-22T10:53:21;7.82;;;5.28;;
53391;SDS011;41667;51.922;8.850;2024-03-22T10:55:49;10.90;;;5.78;;
53391;SDS011;41667;51.922;8.850;2024-03-22T10:58:20;11.80;;;5.85;;
53391;SDS011;41667;51.922;8.850;2024-03-22T11:00:46;10.73;;;5.28;;
53391;SDS011;41667;51.922;8.850;2024-03-22T11:03:12;11.52;;;5.70;;
53391;SDS011;41667;51.922;8.850;2024-03-22T11:05:47;9.00;;;5.38;;
53391;SDS011;41667;51.922;8.850;2024-03-22T11:08:13;8.73;;;5.75;;
53391;SDS011;41667;51.922;8.850;2024-03-22T11:10:55;10.32;;;5.50;;
53391;SDS011;41667;51.922;8.850;2024-03-22T11:13:21;15.00;;;6.28;;
53391;SDS011;41667;51.922;8.850;2024-03-22T11:15:47;11.32;;;6.47;;
53391;SDS011;41667;51.922;8.850;2024-03-22T11:18:13;11.50;;;6.35;;
53391;SDS011;41667;51.922;8.850;2024-03-22T11:20:39;10.63;;;6.15;;
53391;SDS011;41667;51.922;8.850;2024-03-22T11:23:04;10.82;;;6.65;;
53391;SDS011;41667;51.922;8.850;2024-03-22T11:25:33;12.20;;;7.38;;
53391;SDS011;41667;51.922;8.850;2024-03-22T11:27:59;10.13;;;7.80;;
53391;SDS011;41667;51.922;8.850;2024-03-22T11:30:26;12.73;;;7.07;;
53391;SDS011;41667;51.922;8.850;2024-03-22T11:32:51;9.90;;;7.35;;
53391;SDS011;41667;51.922;8.850;2024-03-22T11:35:17;11.05;;;7.25;;
53391;SDS011;41667;51.922;8.850;2024-03-22T11:37:42;8.00;;;6.07;;
53391;SDS011;41667;51.922;8.850;2024-03-22T11:40:11;12.25;;;6.32;;
53391;SDS011;41667;51.922;8.850;2024-03-22T11:42:37;10.35;;;5.60;;
53391;SDS011;41667;51.922;8.850;2024-03-22T11:45:03;14.20;;;7.20;;
53391;SDS011;41667;51.922;8.850;2024-03-22T11:47:30;12.25;;;6.53;;
53391;SDS011;41667;51.922;8.850;2024-03-22T11:49:55;11.65;;;6.63;;
53391;SDS011;41667;51.922;8.850;2024-03-22T11:52:24;17.15;;;7.30;;
53391;SDS011;41667;51.922;8.850;2024-03-22T11:54:52;11.20;;;6.15;;
53391;SDS011;41667;51.922;8.850;2024-03-22T11:57:18;12.32;;;7.05;;
53391;SDS011;41667;51.922;8.850;2024-03-22T11:59:44;12.77;;;8.15;;
53391;SDS011;41667;51.922;8.850;2024-03-22T12:02:09;12.18;;;7.10;;
53391;SDS011;41667;51.922;8.850;2024-03-22T12:04:35;12.18;;;7.38;;
53391;SDS011;41667;51.922;8.850;2024-03-22T12:07:00;12.50;;;7.00;;
53391;SDS011;41667;51.922;8.850;2024-03-22T12:09:25;15.88;;;7.45;;
53391;SDS011;41667;51.922;8.850;2024-03-22T12:11:50;14.35;;;8.15;;
53391;SDS011;41667;51.922;8.850;2024-03-22T12:14:16;10.57;;;6.85;;
53391;SDS011;41667;51.922;8.850;2024-03-22T12:16:41;12.45;;;7.57;;
53391;SDS011;41667;51.922;8.850;2024-03-22T12:19:06;14.40;;;7.18;;
53391;SDS011;41667;51.922;8.850;2024-03-22T12:21:32;11.10;;;7.07;;
53391;SDS011;41667;51.922;8.850;2024-03-22T12:23:57;14.70;;;7.35;;
53391;SDS011;41667;51.922;8.850;2024-03-22T12:26:22;14.50;;;8.20;;
53391;SDS011;41667;51.922;8.850;2024-03-22T12:28:48;10.93;;;7.50;;
53391;SDS011;41667;51.922;8.850;2024-03-22T12:31:16;12.77;;;7.63;;
53391;SDS011;41667;51.922;8.850;2024-03-22T12:33:42;13.48;;;6.38;;
53391;SDS011;41667;51.922;8.850;2024-03-22T12:36:07;12.90;;;6.53;;
53391;SDS011;41667;51.922;8.850;2024-03-22T12:38:32;12.45;;;7.38;;
53391;SDS011;41667;51.922;8.850;2024-03-22T12:40:58;15.75;;;8.23;;
53391;SDS011;41667;51.922;8.850;2024-03-22T12:43:24;14.10;;;8.00;;
53391;SDS011;41667;51.922;8.850;2024-03-22T12:45:49;12.60;;;7.50;;
53391;SDS011;41667;51.922;8.850;2024-03-22T12:48:15;18.50;;;8.75;;
53391;SDS011;41667;51.922;8.850;2024-03-22T12:50:40;15.80;;;9.00;;
53391;SDS011;41667;51.922;8.850;2024-03-22T12:53:05;13.32;;;8.15;;
53391;SDS011;41667;51.922;8.850;2024-03-22T12:55:31;16.38;;;8.15;;
53391;SDS011;41667;51.922;8.850;2024-03-22T12:57:57;15.27;;;9.48;;
53391;SDS011;41667;51.922;8.850;2024-03-22T13:00:22;17.27;;;8.35;;
53391;SDS011;41667;51.922;8.850;2024-03-22T13:02:48;13.82;;;8.38;;
53391;SDS011;41667;51.922;8.850;2024-03-22T13:05:13;15.07;;;8.27;;
53391;SDS011;41667;51.922;8.850;2024-03-22T13:07:40;16.58;;;9.70;;
53391;SDS011;41667;51.922;8.850;2024-03-22T13:10:05;19.00;;;9.65;;
53391;SDS011;41667;51.922;8.850;2024-03-22T13:12:31;17.00;;;9.85;;
53391;SDS011;41667;51.922;8.850;2024-03-22T13:14:56;18.33;;;10.70;;
53391;SDS011;41667;51.922;8.850;2024-03-22T13:17:22;20.80;;;9.82;;
53391;SDS011;41667;51.922;8.850;2024-03-22T13:19:47;21.90;;;10.73;;
53391;SDS011;41667;51.922;8.850;2024-03-22T13:22:12;16.48;;;10.13;;
53391;SDS011;41667;51.922;8.850;2024-03-22T13:24:39;19.27;;;9.95;;
53391;SDS011;41667;51.922;8.850;2024-03-22T13:27:05;19.58;;;10.68;;
53391;SDS011;41667;51.922;8.850;2024-03-22T13:29:30;20.80;;;10.90;;
53391;SDS011;41667;51.922;8.850;2024-03-22T13:31:55;17.20;;;11.05;;
53391;SDS011;41667;51.922;8.850;2024-03-22T13:34:20;18.25;;;11.38;;
53391;SDS011;41667;51.922;8.850;2024-03-22T13:36:46;22.90;;;10.70;;
53391;SDS011;41667;51.922;8.850;2024-03-22T13:39:11;18.45;;;10.60;;
53391;SDS011;41667;51.922;8.850;2024-03-22T13:41:40;19.50;;;10.70;;
53391;SDS011;41667;51.922;8.850;2024-03-22T13:44:05;20.55;;;11.52;;
53391;SDS011;41667;51.922;8.850;2024-03-22T13:46:33;21.77;;;10.82;;
53391;SDS011;41667;51.922;8.850;2024-03-22T13:49:01;17.17;;;10.88;;
53391;SDS011;41667;51.922;8.850;2024-03-22T13:51:26;22.70;;;12.35;;
53391;SDS011;41667;51.922;8.850;2024-03-22T13:53:53;18.15;;;10.90;;
53391;SDS011;41667;51.922;8.850;2024-03-22T13:56:18;22.92;;;12.13;;
53391;SDS011;41667;51.922;8.850;2024-03-22T13:58:43;24.60;;;11.80;;
53391;SDS011;41667;51.922;8.850;2024-03-22T14:01:08;17.15;;;11.68;;
53391;SDS011;41667;51.922;8.850;2024-03-22T14:03:35;24.45;;;10.93;;
53391;SDS011;41667;51.922;8.850;2024-03-22T14:06:01;23.33;;;12.63;;
53391;SDS011;41667;51.922;8.850;2024-03-22T14:08:27;21.05;;;11.15;;
53391;SDS011;41667;51.922;8.850;2024-03-22T14:10:53;24.33;;;12.45;;
53391;SDS011;41667;51.922;8.850;2024-03-22T14:13:18;24.38;;;10.88;;
53391;SDS011;41667;51.922;8.850;2024-03-22T14:15:44;27.38;;;12.35;;
53391;SDS011;41667;51.922;8.850;2024-03-22T14:18:09;21.23;;;12.50;;
53391;SDS011;41667;51.922;8.850;2024-03-22T14:20:34;22.08;;;11.73;;